Time;durP1;ratioP1;P1;durP2;ratioP2;P2;SDS_P1;SDS_P2;PMS_P1;PMS_P2;Temp;Humidity;BMP_temperature;BMP_pressure;BME280_temperature;BME280_humidity;BME280_pressure;Samples;Min_cycle;Max_cycle;Signal;HPM_P1;HPM_P2
2022/10/26 00:01:15;;;;;;;0.00;0.00;;;9.10;99.90;;;;;;5037265;28;20076;-72
2022/10/26 00:03:42;;;;;;;2.63;1.08;;;9.10;99.90;;;;;;5037547;28;20041;-74
2022/10/26 00:06:11;;;;;;;0.80;0.50;;;9.10;99.90;;;;;;5036651;28;20046;-73
2022/10/26 00:08:37;;;;;;;2.55;0.52;;;9.10;99.90;;;;;;5035694;28;20128;-74
2022/10/26 00:11:03;;;;;;;0.15;0.15;;;9.20;99.90;;;;;;5036463;28;20060;-73
2022/10/26 00:13:30;;;;;;;0.25;0.25;;;9.30;99.90;;;;;;5035689;28;20076;-74
2022/10/26 00:15:55;;;;;;;1.02;0.85;;;9.30;99.90;;;;;;5035621;28;20048;-72
2022/10/26 00:18:22;;;;;;;1.30;1.20;;;9.20;99.90;;;;;;5035527;28;20050;-75
2022/10/26 00:20:47;;;;;;;0.00;0.00;;;9.20;99.90;;;;;;5034673;28;20527;-75
2022/10/26 00:23:13;;;;;;;0.47;0.47;;;9.10;99.90;;;;;;5036648;28;20076;-73
2022/10/26 00:25:38;;;;;;;0.20;0.20;;;9.10;99.90;;;;;;5036727;28;20389;-74
2022/10/26 00:28:04;;;;;;;1.63;0.50;;;9.10;99.90;;;;;;5034414;28;20076;-74
2022/10/26 00:30:30;;;;;;;0.38;0.32;;;9.20;99.90;;;;;;5035645;28;20106;-75
2022/10/26 00:32:55;;;;;;;1.75;1.08;;;9.20;99.90;;;;;;5035987;28;20042;-75
2022/10/26 00:35:21;;;;;;;4.32;0.47;;;9.10;99.90;;;;;;5037414;28;20053;-74
2022/10/26 00:37:47;;;;;;;0.40;0.30;;;9.10;99.90;;;;;;5037010;28;20068;-74
2022/10/26 00:40:12;;;;;;;0.15;0.15;;;9.00;99.90;;;;;;5036803;28;20068;-74
2022/10/26 00:42:38;;;;;;;0.20;0.10;;;8.90;99.90;;;;;;5034765;28;20064;-74
2022/10/26 00:45:19;;;;;;;0.47;0.35;;;8.80;99.90;;;;;;5034977;28;20060;-74
2022/10/26 00:47:52;;;;;;;0.10;0.10;;;8.80;99.90;;;;;;5034599;28;20076;-74
2022/10/26 00:50:23;;;;;;;1.30;0.85;;;8.60;99.90;;;;;;5034609;28;20084;-75
2022/10/26 00:52:51;;;;;;;0.35;0.32;;;8.60;99.90;;;;;;5035283;28;20452;-74
2022/10/26 00:55:20;;;;;;;0.88;0.52;;;8.60;99.90;;;;;;5034282;28;20451;-75
2022/10/26 00:57:46;;;;;;;0.30;0.10;;;8.60;99.90;;;;;;5034195;28;20041;-74
2022/10/26 01:00:12;;;;;;;0.17;0.17;;;8.50;99.90;;;;;;5033589;28;20506;-75
2022/10/26 01:02:38;;;;;;;0.20;0.20;;;8.50;99.90;;;;;;5033448;28;20045;-75
2022/10/26 01:05:05;;;;;;;1.92;0.93;;;8.50;99.90;;;;;;5034382;28;20050;-74
2022/10/26 01:07:32;;;;;;;0.40;0.40;;;8.40;99.90;;;;;;5033568;28;20049;-74
2022/10/26 01:09:59;;;;;;;0.17;0.17;;;8.40;99.90;;;;;;5034275;28;20052;-74
2022/10/26 01:12:25;;;;;;;0.75;0.55;;;8.40;99.90;;;;;;5033650;28;20088;-73
2022/10/26 01:14:51;;;;;;;0.05;0.05;;;8.40;99.90;;;;;;5033701;28;20045;-75
2022/10/26 01:17:44;;;;;;;0.55;0.30;;;8.40;99.90;;;;;;5032494;28;20049;-74
2022/10/26 01:20:32;;;;;;;1.08;0.85;;;8.30;99.90;;;;;;5032034;28;20060;-73
2022/10/26 01:23:25;;;;;;;0.63;0.52;;;8.10;99.90;;;;;;5032233;28;20037;-73
2022/10/26 01:26:20;;;;;;;0.50;0.32;;;7.90;99.90;;;;;;5032555;28;20069;-73
2022/10/26 01:29:10;;;;;;;0.45;0.43;;;7.70;99.90;;;;;;5032798;28;20087;-75
2022/10/26 01:31:57;;;;;;;1.10;0.80;;;7.50;99.90;;;;;;5032150;28;20488;-75
2022/10/26 01:34:55;;;;;;;0.20;0.20;;;7.40;99.90;;;;;;5033684;28;20045;-73
2022/10/26 01:37:29;;;;;;;0.28;0.28;;;7.30;99.90;;;;;;5032772;28;20045;-73
2022/10/26 01:40:05;;;;;;;0.68;0.63;;;7.30;99.90;;;;;;5033228;28;20045;-74
2022/10/26 01:42:31;;;;;;;1.35;0.98;;;7.30;99.90;;;;;;5030753;28;20085;-73
2022/10/26 01:45:08;;;;;;;3.30;1.75;;;7.20;99.90;;;;;;5011527;28;20074;-73
2022/10/26 01:47:37;;;;;;;1.20;0.98;;;7.10;99.90;;;;;;5011438;28;20066;-72
2022/10/26 01:50:04;;;;;;;0.68;0.28;;;7.10;99.90;;;;;;5025905;28;20120;-74
2022/10/26 01:52:30;;;;;;;0.30;0.30;;;7.00;99.90;;;;;;5029677;28;20500;-74
2022/10/26 01:55:23;;;;;;;0.70;0.70;;;6.90;99.90;;;;;;5030565;28;20052;-74
2022/10/26 01:57:51;;;;;;;0.60;0.60;;;6.80;99.90;;;;;;5031396;28;20106;-72
2022/10/26 02:00:17;;;;;;;0.55;0.55;;;6.80;99.90;;;;;;5100717;22;20060;-85
2022/10/26 02:02:54;;;;;;;0.75;0.70;;;6.30;99.90;;;;;;5037154;28;20048;-86
2022/10/26 02:05:48;;;;;;;0.90;0.85;;;6.80;99.90;;;;;;5057521;28;20051;-84
2022/10/26 02:08:25;;;;;;;0.28;0.22;;;6.90;99.90;;;;;;5041807;28;20090;-85
2022/10/26 02:10:52;;;;;;;0.65;0.60;;;6.70;99.90;;;;;;5052586;28;20066;-86
2022/10/26 02:13:35;;;;;;;0.40;0.40;;;7.20;99.90;;;;;;5053334;28;20053;-85
2022/10/26 02:16:23;;;;;;;0.38;0.38;;;6.70;99.90;;;;;;5053114;28;20106;-87
2022/10/26 02:19:09;;;;;;;0.52;0.20;;;6.80;99.90;;;;;;5036465;28;20112;-86
2022/10/26 02:21:43;;;;;;;0.28;0.28;;;7.10;99.90;;;;;;5052737;28;20465;-86
2022/10/26 02:24:11;;;;;;;0.68;0.52;;;7.40;99.90;;;;;;5052925;28;20056;-85
2022/10/26 02:26:40;;;;;;;0.20;0.20;;;7.70;99.90;;;;;;5053224;28;20600;-85
2022/10/26 02:29:10;;;;;;;0.38;0.38;;;6.70;99.90;;;;;;5054334;28;20037;-86
2022/10/26 02:31:37;;;;;;;1.65;0.50;;;7.20;99.90;;;;;;5066553;28;20037;-87
2022/10/26 02:34:08;;;;;;;0.08;0.08;;;6.60;99.90;;;;;;5047811;28;20045;-85
2022/10/26 02:36:37;;;;;;;0.55;0.55;;;6.70;99.90;;;;;;5032370;28;20049;-86
2022/10/26 02:39:08;;;;;;;0.20;0.20;;;6.70;99.90;;;;;;5050254;28;20041;-85
2022/10/26 02:41:42;;;;;;;0.90;0.25;;;6.70;99.90;;;;;;5032080;28;20113;-86
2022/10/26 02:44:17;;;;;;;0.40;0.40;;;7.00;99.90;;;;;;5031566;28;20048;-85
2022/10/26 02:46:44;;;;;;;1.55;1.30;;;7.20;99.90;;;;;;5049280;28;20048;-85
2022/10/26 02:49:10;;;;;;;1.25;0.68;;;6.80;99.90;;;;;;5031819;28;20077;-86
2022/10/26 02:51:50;;;;;;;0.52;0.52;;;7.00;99.90;;;;;;5015680;28;20218;-86
2022/10/26 02:54:40;;;;;;;0.20;0.20;;;6.90;99.90;;;;;;5031548;28;20107;-85
2022/10/26 02:57:14;;;;;;;0.30;0.30;;;6.80;99.90;;;;;;5015300;28;20049;-85
2022/10/26 02:59:43;;;;;;;1.95;1.42;;;6.80;99.90;;;;;;5014387;28;20242;-85
2022/10/26 03:02:11;;;;;;;1.20;0.98;;;7.30;99.90;;;;;;5049068;28;20056;-86
2022/10/26 03:04:37;;;;;;;0.32;0.32;;;7.50;99.90;;;;;;5048167;28;20091;-86
2022/10/26 03:07:05;;;;;;;0.17;0.17;;;7.50;99.90;;;;;;5030899;28;20138;-87
2022/10/26 03:09:30;;;;;;;0.08;0.08;;;7.40;99.90;;;;;;5031545;28;20049;-86
2022/10/26 03:11:56;;;;;;;0.50;0.50;;;7.40;99.90;;;;;;5031122;28;20052;-86
2022/10/26 03:14:22;;;;;;;2.40;1.02;;;7.40;99.90;;;;;;5030830;28;20049;-85
2022/10/26 03:16:48;;;;;;;0.47;0.47;;;6.80;99.90;;;;;;5015090;28;20082;-85
2022/10/26 03:19:14;;;;;;;1.98;1.42;;;7.70;99.90;;;;;;5049906;28;20049;-86
2022/10/26 03:21:41;;;;;;;0.57;0.55;;;6.50;99.90;;;;;;5015705;28;20053;-86
2022/10/26 03:24:08;;;;;;;1.00;0.80;;;6.80;99.90;;;;;;5031967;28;20136;-86
2022/10/26 03:26:36;;;;;;;0.30;0.30;;;6.70;99.90;;;;;;5032232;28;20457;-86
2022/10/26 03:29:02;;;;;;;0.10;0.10;;;6.50;99.90;;;;;;5049788;28;20080;-87
2022/10/26 03:31:28;;;;;;;3.20;1.45;;;6.50;99.90;;;;;;5035418;28;20056;-85
2022/10/26 03:33:57;;;;;;;2.90;1.20;;;7.20;99.90;;;;;;5052331;28;20616;-86
2022/10/26 03:36:22;;;;;;;3.22;0.77;;;7.20;99.90;;;;;;5035439;28;20060;-86
2022/10/26 03:38:48;;;;;;;0.20;0.20;;;7.90;99.90;;;;;;5018528;28;20056;-86
2022/10/26 03:41:14;;;;;;;0.68;0.68;;;7.20;99.90;;;;;;5018065;28;20510;-85
2022/10/26 03:43:42;;;;;;;0.75;0.75;;;7.60;99.90;;;;;;5051114;28;20080;-84
2022/10/26 03:46:08;;;;;;;0.47;0.47;;;7.50;99.90;;;;;;5018337;28;20073;-85
2022/10/26 03:48:39;;;;;;;1.75;1.63;;;8.30;99.90;;;;;;5035063;28;20080;-85
2022/10/26 03:51:05;;;;;;;2.53;1.27;;;7.60;99.90;;;;;;5051764;28;20052;-85
2022/10/26 03:53:31;;;;;;;0.75;0.38;;;8.10;99.90;;;;;;5052570;28;20125;-86
2022/10/26 03:55:57;;;;;;;1.70;0.80;;;8.10;99.90;;;;;;5033893;28;20566;-86
2022/10/26 03:58:22;;;;;;;3.00;1.60;;;7.60;99.90;;;;;;5051690;28;20091;-85
2022/10/26 04:00:50;;;;;;;0.80;0.80;;;7.40;99.90;;;;;;5032303;28;20049;-86
2022/10/26 04:03:17;;;;;;;0.70;0.70;;;7.10;99.90;;;;;;5052189;28;20049;-85
2022/10/26 04:05:46;;;;;;;0.30;0.30;;;7.00;99.90;;;;;;5054527;28;20035;-86
2022/10/26 04:08:11;;;;;;;1.02;0.73;;;7.00;99.90;;;;;;5090154;28;20033;-84
2022/10/26 04:10:40;;;;;;;1.88;1.77;;;7.90;99.90;;;;;;5081397;28;20430;-86
2022/10/26 04:13:06;;;;;;;2.40;2.20;;;7.30;99.90;;;;;;5054780;28;20048;-85
2022/10/26 04:15:43;;;;;;;1.45;1.35;;;8.10;99.90;;;;;;5055401;28;20139;-85
2022/10/26 04:18:12;;;;;;;2.58;1.52;;;8.30;99.90;;;;;;5041309;28;20044;-86
2022/10/26 04:20:41;;;;;;;3.10;2.38;;;7.90;99.90;;;;;;5057501;28;20083;-84
2022/10/26 04:23:29;;;;;;;0.38;0.38;;;7.80;99.90;;;;;;5075147;28;20056;-85
2022/10/26 04:25:55;;;;;;;2.70;2.50;;;7.80;99.90;;;;;;5074307;28;20512;-84
2022/10/26 04:28:21;;;;;;;0.57;0.57;;;8.70;99.90;;;;;;5073772;28;20120;-86
2022/10/26 04:30:50;;;;;;;0.40;0.40;;;7.70;99.90;;;;;;5037053;28;20041;-85
2022/10/26 04:33:15;;;;;;;49.85;1.20;;;7.50;99.90;;;;;;5057177;28;20383;-86
2022/10/26 04:35:41;;;;;;;1.15;1.00;;;8.90;99.90;;;;;;5056212;28;20051;-86
2022/10/26 04:38:08;;;;;;;0.70;0.68;;;7.90;99.90;;;;;;5074610;28;20399;-85
2022/10/26 04:40:34;;;;;;;1.45;1.10;;;8.00;99.90;;;;;;5071565;28;20406;-85
2022/10/26 04:43:00;;;;;;;3.05;1.98;;;8.50;99.90;;;;;;5074231;28;20051;-85
2022/10/26 04:45:29;;;;;;;1.15;1.05;;;8.30;99.90;;;;;;5041320;28;20061;-85
2022/10/26 04:48:09;;;;;;;1.65;1.33;;;7.60;99.90;;;;;;5040852;28;20468;-85
2022/10/26 04:50:36;;;;;;;2.08;1.00;;;8.70;99.90;;;;;;5073871;28;20055;-84
2022/10/26 04:53:02;;;;;;;1.95;1.27;;;7.60;99.90;;;;;;5058763;28;20043;-85
2022/10/26 04:55:28;;;;;;;0.63;0.63;;;9.00;99.90;;;;;;5073410;28;20044;-84
2022/10/26 04:57:56;;;;;;;2.40;2.05;;;8.50;99.90;;;;;;5057397;28;20067;-85
2022/10/26 05:00:27;;;;;;;1.27;1.13;;;8.50;99.90;;;;;;5056247;28;20064;-84
2022/10/26 05:03:06;;;;;;;1.17;1.08;;;9.20;99.90;;;;;;5086470;28;20033;-85
2022/10/26 05:05:34;;;;;;;0.95;0.95;;;8.60;99.90;;;;;;5094956;28;20062;-86
2022/10/26 05:08:18;;;;;;;0.98;0.93;;;8.80;99.90;;;;;;5078543;28;20048;-85
2022/10/26 05:11:22;;;;;;;7.95;1.42;;;9.40;99.90;;;;;;5061594;28;20317;-86
2022/10/26 05:13:48;;;;;;;1.40;1.15;;;8.20;99.90;;;;;;5077410;28;20309;-86
2022/10/26 05:16:15;;;;;;;3.17;1.55;;;8.00;99.90;;;;;;5079191;28;20059;-83
2022/10/26 05:18:41;;;;;;;1.20;1.10;;;9.30;99.90;;;;;;5052657;28;20052;-85
2022/10/26 05:21:07;;;;;;;1.40;1.27;;;8.10;99.90;;;;;;5056040;28;20076;-84
2022/10/26 05:23:41;;;;;;;1.35;1.13;;;8.80;99.90;;;;;;5069977;28;20525;-84
2022/10/26 05:26:07;;;;;;;2.20;2.05;;;9.70;99.90;;;;;;5051353;28;20063;-85
2022/10/26 05:28:32;;;;;;;2.25;1.92;;;9.70;99.90;;;;;;5052126;28;20041;-85
2022/10/26 05:31:01;;;;;;;1.95;1.35;;;8.90;99.90;;;;;;5068578;28;20051;-85
2022/10/26 05:33:27;;;;;;;0.90;0.80;;;9.70;99.90;;;;;;5069734;28;20063;-85
2022/10/26 05:35:54;;;;;;;4.10;1.67;;;9.10;99.90;;;;;;5034729;28;20411;-85
2022/10/26 05:38:19;;;;;;;8.15;1.58;;;9.10;99.90;;;;;;5050269;28;20072;-84
2022/10/26 05:40:53;;;;;;;1.92;1.40;;;9.20;99.90;;;;;;5051649;28;20079;-84
2022/10/26 05:43:20;;;;;;;2.78;1.83;;;9.20;99.90;;;;;;5034500;28;20080;-85
2022/10/26 05:45:48;;;;;;;1.73;1.58;;;9.60;99.90;;;;;;5034081;28;20040;-84
2022/10/26 05:48:14;;;;;;;1.25;1.05;;;9.20;99.90;;;;;;5051120;28;20136;-86
2022/10/26 05:50:39;;;;;;;2.33;1.63;;;9.30;99.90;;;;;;5050983;28;20474;-85
2022/10/26 05:53:05;;;;;;;3.38;1.60;;;9.90;99.90;;;;;;5050997;28;20090;-85
2022/10/26 05:55:34;;;;;;;1.05;0.68;;;9.80;99.90;;;;;;5051501;28;20091;-86
2022/10/26 05:58:00;;;;;;;0.22;0.22;;;9.10;99.90;;;;;;5050750;28;20058;-85
2022/10/26 06:00:28;;;;;;;1.60;1.50;;;9.00;99.90;;;;;;5051503;28;20056;-86
2022/10/26 06:03:24;;;;;;;2.10;1.58;;;9.00;99.90;;;;;;5051195;28;20078;-85
2022/10/26 06:05:57;;;;;;;0.98;0.52;;;9.00;99.90;;;;;;5051269;28;20445;-85
2022/10/26 06:08:26;;;;;;;4.25;1.75;;;9.10;99.90;;;;;;5035360;28;20086;-85
2022/10/26 06:10:53;;;;;;;1.75;1.17;;;9.10;99.90;;;;;;5051837;28;20112;-84
2022/10/26 06:13:22;;;;;;;0.68;0.47;;;9.10;99.90;;;;;;5034095;28;20048;-85
2022/10/26 06:15:58;;;;;;;0.63;0.47;;;9.00;99.90;;;;;;5068553;28;20071;-85
2022/10/26 06:18:44;;;;;;;0.25;0.25;;;9.90;99.90;;;;;;5050107;28;20056;-83
2022/10/26 06:21:36;;;;;;;3.17;2.72;;;9.00;99.90;;;;;;5049770;28;20113;-83
2022/10/26 06:24:11;;;;;;;0.70;0.70;;;9.10;99.90;;;;;;5068191;28;20426;-84
2022/10/26 06:27:06;;;;;;;3.05;1.73;;;9.10;99.90;;;;;;5054043;28;20059;-85
2022/10/26 06:29:43;;;;;;;0.68;0.68;;;9.20;99.90;;;;;;5069238;28;20051;-83
2022/10/26 06:32:09;;;;;;;19.92;1.88;;;9.30;99.90;;;;;;5065184;28;20048;-85
2022/10/26 06:34:41;;;;;;;0.68;0.68;;;9.30;99.90;;;;;;5063049;28;20101;-83
2022/10/26 06:37:07;;;;;;;1.02;0.65;;;9.30;99.90;;;;;;5059509;28;20094;-85
2022/10/26 06:39:38;;;;;;;3.85;1.77;;;9.30;99.90;;;;;;5042671;28;20045;-83
2022/10/26 06:42:05;;;;;;;2.17;1.33;;;9.40;99.90;;;;;;5022164;28;20649;-85
2022/10/26 06:44:32;;;;;;;0.85;0.73;;;9.40;99.90;;;;;;5043947;28;20498;-84
2022/10/26 06:47:17;;;;;;;1.35;1.25;;;9.40;99.90;;;;;;5062254;28;20120;-84
2022/10/26 06:50:05;;;;;;;0.60;0.57;;;9.40;99.90;;;;;;5043350;28;20051;-84
2022/10/26 06:52:40;;;;;;;1.75;1.30;;;9.50;99.90;;;;;;5027552;28;20519;-84
2022/10/26 06:55:13;;;;;;;1.38;1.13;;;9.50;99.90;;;;;;5027800;28;20056;-84
2022/10/26 06:57:41;;;;;;;1.27;0.80;;;9.50;99.90;;;;;;5064742;28;20040;-84
2022/10/26 07:00:17;;;;;;;0.80;0.80;;;9.50;99.90;;;;;;5062478;28;20061;-84
2022/10/26 07:02:43;;;;;;;2.42;1.58;;;9.50;99.90;;;;;;5028125;28;20060;-85
2022/10/26 07:05:11;;;;;;;5.13;1.38;;;9.60;99.90;;;;;;5048329;28;20044;-85
2022/10/26 07:07:49;;;;;;;1.13;0.93;;;9.70;99.90;;;;;;5066578;28;20538;-83
2022/10/26 07:10:15;;;;;;;0.85;0.65;;;9.70;99.90;;;;;;5048553;28;20051;-85
2022/10/26 07:12:41;;;;;;;1.13;0.85;;;10.30;99.90;;;;;;5031837;28;20066;-85
2022/10/26 07:15:07;;;;;;;12.30;1.20;;;9.80;99.90;;;;;;5048380;28;20098;-85
2022/10/26 07:17:47;;;;;;;0.25;0.25;;;9.90;99.90;;;;;;5031634;28;20056;-84
2022/10/26 07:20:13;;;;;;;1.83;1.33;;;10.00;99.90;;;;;;5047976;28;20766;-83
2022/10/26 07:22:38;;;;;;;0.90;0.43;;;10.00;99.90;;;;;;5047498;28;20128;-85
2022/10/26 07:25:05;;;;;;;2.22;1.20;;;10.10;99.90;;;;;;5066088;28;20123;-83
2022/10/26 07:27:31;;;;;;;0.77;0.73;;;10.20;99.90;;;;;;5050074;28;20638;-84
2022/10/26 07:29:57;;;;;;;1.58;0.57;;;10.30;99.90;;;;;;5065517;28;20040;-84
2022/10/26 07:32:22;;;;;;;3.55;2.70;;;10.50;99.90;;;;;;5047685;28;20041;-83
2022/10/26 07:34:48;;;;;;;0.40;0.40;;;10.60;99.90;;;;;;5030205;28;20402;-84
2022/10/26 07:37:14;;;;;;;0.82;0.55;;;10.70;99.90;;;;;;5031431;28;20052;-85
2022/10/26 07:39:40;;;;;;;0.10;0.10;;;10.90;99.90;;;;;;5065770;28;20044;-84
2022/10/26 07:42:05;;;;;;;1.30;1.02;;;10.80;99.90;;;;;;5031094;28;20052;-84
2022/10/26 07:44:31;;;;;;;0.80;0.45;;;10.90;99.90;;;;;;5065694;28;20860;-85
2022/10/26 07:46:57;;;;;;;0.63;0.25;;;11.00;99.90;;;;;;5064709;28;20080;-83
2022/10/26 07:49:22;;;;;;;0.88;0.77;;;11.10;99.90;;;;;;5031275;28;20080;-84
2022/10/26 07:51:48;;;;;;;0.00;0.00;;;11.30;99.90;;;;;;5047187;28;20132;-84
2022/10/26 07:54:14;;;;;;;0.35;0.35;;;12.20;99.90;;;;;;5047810;28;20044;-85
2022/10/26 07:56:39;;;;;;;1.33;1.02;;;11.30;99.90;;;;;;5048127;28;20055;-85
2022/10/26 07:59:05;;;;;;;0.32;0.32;;;11.40;99.90;;;;;;5047765;28;20487;-85
2022/10/26 08:01:30;;;;;;;4.95;1.90;;;11.40;99.90;;;;;;5065945;28;20044;-85
2022/10/26 08:03:56;;;;;;;0.35;0.20;;;11.50;99.90;;;;;;5047993;28;20076;-85
2022/10/26 08:06:22;;;;;;;0.60;0.57;;;11.60;99.90;;;;;;5065658;28;20452;-85
2022/10/26 08:08:48;;;;;;;2.50;0.70;;;11.60;99.90;;;;;;5066748;28;20052;-84
2022/10/26 08:11:15;;;;;;;0.80;0.57;;;12.30;99.90;;;;;;5047810;28;20090;-84
2022/10/26 08:13:41;;;;;;;1.13;0.32;;;11.80;99.90;;;;;;5030939;28;20146;-85
2022/10/26 08:16:07;;;;;;;0.65;0.60;;;11.90;99.90;;;;;;5065408;28;20048;-85
2022/10/26 08:18:36;;;;;;;12.45;1.17;;;12.00;99.90;;;;;;5029734;28;20116;-84
2022/10/26 08:21:05;;;;;;;2.63;1.13;;;12.00;99.90;;;;;;5029701;28;20071;-84
2022/10/26 08:23:31;;;;;;;0.20;0.20;;;12.20;99.90;;;;;;5043701;28;20474;-85
2022/10/26 08:25:58;;;;;;;0.52;0.50;;;12.20;99.90;;;;;;5017484;28;20211;-85
2022/10/26 08:28:24;;;;;;;0.35;0.35;;;12.30;99.90;;;;;;5066090;28;20060;-85
2022/10/26 08:30:50;;;;;;;2.05;0.60;;;12.40;99.90;;;;;;5032086;28;20056;-84
2022/10/26 08:33:16;;;;;;;0.43;0.35;;;12.40;99.90;;;;;;5067331;28;20557;-84
2022/10/26 08:35:41;;;;;;;0.00;0.00;;;12.50;99.90;;;;;;5068302;28;20520;-84
2022/10/26 08:38:08;;;;;;;0.70;0.65;;;12.60;99.90;;;;;;5084572;28;20072;-85
2022/10/26 08:40:37;;;;;;;0.30;0.30;;;12.60;99.90;;;;;;5066192;28;20072;-85
2022/10/26 08:43:28;;;;;;;0.20;0.20;;;12.60;99.90;;;;;;5041213;28;20606;-86
2022/10/26 08:46:12;;;;;;;0.30;0.30;;;12.60;99.90;;;;;;5083035;28;20047;-86
2022/10/26 08:48:46;;;;;;;0.00;0.00;;;12.60;99.90;;;;;;5088705;28;20119;-85
2022/10/26 08:51:16;;;;;;;2.47;0.90;;;12.60;99.90;;;;;;5090730;28;20166;-84
2022/10/26 08:53:58;;;;;;;2.47;0.38;;;12.70;99.90;;;;;;5091010;28;20088;-84
2022/10/26 08:56:27;;;;;;;0.75;0.75;;;12.90;99.90;;;;;;5073668;28;20108;-86
2022/10/26 08:59:16;;;;;;;0.00;0.00;;;13.00;99.90;;;;;;5091151;28;20029;-86
2022/10/26 09:01:41;;;;;;;0.70;0.70;;;13.10;99.90;;;;;;5090846;28;20082;-84
2022/10/26 09:04:11;;;;;;;1.25;0.60;;;13.20;99.90;;;;;;5090868;28;20040;-85
2022/10/26 09:06:56;;;;;;;0.10;0.10;;;14.20;99.90;;;;;;5071948;28;20047;-85
2022/10/26 09:09:26;;;;;;;8.77;1.40;;;13.50;99.90;;;;;;5090333;28;20375;-85
2022/10/26 09:12:04;;;;;;;2.10;0.80;;;13.70;25.40;;;;;;5089062;28;20036;-85
2022/10/26 09:14:46;;;;;;;0.25;0.20;;;13.80;1.00;;;;;;5089989;28;20017;-85
2022/10/26 09:17:21;;;;;;;0.10;0.10;;;13.80;1.00;;;;;;5072202;28;20028;-85
2022/10/26 09:20:25;;;;;;;0.65;0.50;;;13.90;1.00;;;;;;5088456;28;20080;-85
2022/10/26 09:23:14;;;;;;;0.10;0.00;;;14.00;1.00;;;;;;5065190;28;20036;-84
2022/10/26 09:25:40;;;;;;;0.20;0.20;;;14.40;99.90;;;;;;5064861;28;20040;-84
2022/10/26 09:28:16;;;;;;;0.55;0.45;;;14.20;99.90;;;;;;5065062;28;20045;-85
2022/10/26 09:30:44;;;;;;;0.35;0.30;;;14.30;99.90;;;;;;5065856;28;20133;-85
2022/10/26 09:33:17;;;;;;;0.13;0.13;;;14.50;99.90;;;;;;5048419;28;20048;-85
2022/10/26 09:35:49;;;;;;;1.63;0.95;;;14.60;99.90;;;;;;5064381;28;20040;-84
2022/10/26 09:38:40;;;;;;;1.00;0.52;;;14.70;99.90;;;;;;5046226;28;20127;-84
2022/10/26 09:41:56;;;;;;;0.80;0.30;;;14.70;99.90;;;;;;5044802;28;20385;-85
2022/10/26 09:44:48;;;;;;;0.32;0.20;;;14.70;99.90;;;;;;5021801;28;20079;-85
2022/10/26 09:47:29;;;;;;;1.77;0.20;;;14.90;99.90;;;;;;5065487;28;20561;-84
2022/10/26 09:50:00;;;;;;;2.83;0.52;;;14.90;99.90;;;;;;5009865;28;20138;-85
2022/10/26 09:52:26;;;;;;;0.10;0.10;;;15.30;99.90;;;;;;5043447;28;20048;-86
2022/10/26 09:54:52;;;;;;;0.30;0.30;;;15.60;99.90;;;;;;5026406;28;20377;-85
2022/10/26 09:57:19;;;;;;;0.68;0.57;;;15.60;99.90;;;;;;5049475;28;20460;-85
2022/10/26 09:59:49;;;;;;;0.63;0.47;;;15.30;99.90;;;;;;5063690;28;20058;-85
2022/10/26 10:02:44;;;;;;;0.00;0.00;;;15.40;1.00;;;;;;5064092;28;20062;-84
2022/10/26 10:05:36;;;;;;;0.30;0.28;;;16.00;1.00;;;;;;5066659;28;20040;-85
2022/10/26 10:08:22;;;;;;;0.00;0.00;;;15.60;99.90;;;;;;5059695;28;20060;-84
2022/10/26 10:11:08;;;;;;;0.38;0.38;;;15.60;1.00;;;;;;5063956;28;20513;-85
2022/10/26 10:13:45;;;;;;;9.20;1.25;;;15.70;1.00;;;;;;5064918;28;20631;-85
2022/10/26 10:16:19;;;;;;;3.58;0.88;;;16.00;99.90;;;;;;5046557;28;20561;-85
2022/10/26 10:18:55;;;;;;;0.20;0.20;;;16.30;99.90;;;;;;5065585;28;20076;-85
2022/10/26 10:21:36;;;;;;;0.05;0.05;;;16.50;99.90;;;;;;5051203;28;20049;-85
2022/10/26 10:24:01;;;;;;;0.65;0.52;;;16.70;1.00;;;;;;5066210;28;20055;-85
2022/10/26 10:26:27;;;;;;;1.17;0.43;;;16.80;1.00;;;;;;5050422;28;20045;-85
2022/10/26 10:29:00;;;;;;;0.00;0.00;;;16.90;99.90;;;;;;5048342;28;20076;-85
2022/10/26 10:31:32;;;;;;;0.22;0.22;;;17.10;99.90;;;;;;5044608;28;20075;-85
2022/10/26 10:34:01;;;;;;;0.08;0.08;;;17.30;99.90;;;;;;5047912;28;20048;-84
2022/10/26 10:36:29;;;;;;;3.83;0.50;;;17.80;16.70;;;;;;5066112;28;20422;-84
2022/10/26 10:38:55;;;;;;;0.17;0.17;;;17.60;54.10;;;;;;5069558;28;20123;-85
2022/10/26 10:41:28;;;;;;;0.45;0.30;;;18.20;1.00;;;;;;5072260;28;20094;-85
2022/10/26 10:44:06;;;;;;;0.00;0.00;;;18.20;99.90;;;;;;5069362;28;20570;-85
2022/10/26 10:46:32;;;;;;;0.00;0.00;;;18.20;78.40;;;;;;5054064;28;20044;-85
2022/10/26 10:49:15;;;;;;;0.17;0.17;;;19.00;1.00;;;;;;5070216;28;20037;-84
2022/10/26 10:51:40;;;;;;;1.30;0.60;;;18.20;1.00;;;;;;5070893;28;20044;-85
2022/10/26 10:54:23;;;;;;;0.68;0.50;;;18.40;1.00;;;;;;5052548;28;20055;-85
2022/10/26 10:57:14;;;;;;;0.15;0.15;;;18.40;1.00;;;;;;5053976;28;20592;-85
2022/10/26 11:00:08;;;;;;;0.32;0.22;;;18.40;99.90;;;;;;5033837;28;20090;-85
2022/10/26 11:02:52;;;;;;;5.70;1.88;;;18.20;1.00;;;;;;5068921;28;20044;-86
2022/10/26 11:05:41;;;;;;;1.65;0.93;;;18.30;1.00;;;;;;5036760;28;20183;-85
2022/10/26 11:08:24;;;;;;;0.65;0.50;;;18.40;99.90;;;;;;5038252;28;20056;-86
2022/10/26 11:10:58;;;;;;;0.43;0.43;;;18.50;99.90;;;;;;5046411;28;20055;-85
2022/10/26 11:13:34;;;;;;;0.00;0.00;;;18.50;99.90;;;;;;5084656;28;20041;-85
2022/10/26 11:16:13;;;;;;;0.00;0.00;;;18.70;99.90;;;;;;5050951;28;20033;-85
2022/10/26 11:18:49;;;;;;;0.00;0.00;;;18.90;99.90;;;;;;5069389;28;20044;-85
2022/10/26 11:21:29;;;;;;;0.10;0.08;;;19.50;99.90;;;;;;5066863;28;20452;-86
2022/10/26 11:24:20;;;;;;;0.00;0.00;;;19.10;1.00;;;;;;5037305;28;20040;-85
2022/10/26 11:26:54;;;;;;;0.13;0.13;;;19.30;1.00;;;;;;5054818;28;20036;-86
2022/10/26 11:29:37;;;;;;;1.20;0.35;;;19.60;1.00;;;;;;5036815;28;20044;-85
2022/10/26 11:32:23;;;;;;;0.35;0.35;;;19.80;99.90;;;;;;5054284;28;20106;-84
2022/10/26 11:35:11;;;;;;;0.00;0.00;;;20.00;99.90;;;;;;5037838;28;20067;-85
2022/10/26 11:37:56;;;;;;;0.52;0.47;;;19.90;99.90;;;;;;5054861;28;20143;-85
2022/10/26 11:40:41;;;;;;;0.80;0.52;;;19.70;7.30;;;;;;5055212;28;20542;-85
2022/10/26 11:43:22;;;;;;;0.05;0.05;;;19.30;99.90;;;;;;5071301;28;20083;-87
2022/10/26 11:46:04;;;;;;;0.95;0.45;;;19.50;99.90;;;;;;5072323;28;20497;-85
2022/10/26 11:49:18;;;;;;;0.20;0.10;;;19.50;99.90;;;;;;5038838;28;20052;-87
2022/10/26 11:52:03;;;;;;;1.60;0.73;;;19.40;99.90;;;;;;5041082;28;20079;-85
2022/10/26 11:54:53;;;;;;;0.30;0.27;;;19.40;99.90;;;;;;5070538;28;20055;-84
2022/10/26 11:57:22;;;;;;;0.00;0.00;;;19.40;99.90;;;;;;5029188;28;20295;-86
2022/10/26 11:59:57;;;;;;;2.45;0.82;;;19.50;99.90;;;;;;5035421;28;20140;-86
2022/10/26 12:02:24;;;;;;;0.20;0.20;;;20.30;1.00;;;;;;5034822;28;20057;-86
2022/10/26 12:04:55;;;;;;;0.98;0.15;;;20.00;99.90;;;;;;5050659;28;20585;-87
2022/10/26 12:07:31;;;;;;;0.00;0.00;;;20.00;99.90;;;;;;5052822;28;20436;-85
2022/10/26 12:10:07;;;;;;;1.13;0.65;;;20.30;99.90;;;;;;5051779;28;20042;-85
2022/10/26 12:12:51;;;;;;;1.15;0.95;;;20.40;72.00;;;;;;5056618;28;20495;-86
2022/10/26 12:15:22;;;;;;;0.10;0.03;;;20.50;92.00;;;;;;5037621;28;20643;-87
2022/10/26 12:18:00;;;;;;;0.30;0.28;;;20.30;67.60;;;;;;5055457;28;20398;-86
2022/10/26 12:20:49;;;;;;;0.20;0.10;;;20.60;1.00;;;;;;5054041;28;20049;-88
2022/10/26 12:23:15;;;;;;;0.63;0.30;;;20.50;1.00;;;;;;5055596;28;20105;-87
2022/10/26 12:25:41;;;;;;;0.43;0.32;;;20.70;1.00;;;;;;5037614;28;20112;-86
2022/10/26 12:28:35;;;;;;;0.82;0.30;;;20.20;1.00;;;;;;5053926;28;20471;-86
2022/10/26 12:31:35;;;;;;;0.20;0.20;;;20.10;1.00;;;;;;5052660;28;20091;-88
2022/10/26 12:34:10;;;;;;;0.03;0.03;;;20.20;7.10;;;;;;5053714;28;20056;-85
2022/10/26 12:36:57;;;;;;;0.38;0.35;;;20.30;1.00;;;;;;5033550;28;20119;-86
2022/10/26 12:39:33;;;;;;;0.28;0.28;;;20.40;48.20;;;;;;5050552;28;20052;-85
2022/10/26 12:42:05;;;;;;;0.00;0.00;;;20.60;16.40;;;;;;5051643;28;20112;-86
2022/10/26 12:44:34;;;;;;;0.10;0.10;;;20.70;1.00;;;;;;5071758;28;20097;-86
2022/10/26 12:47:00;;;;;;;0.10;0.10;;;20.70;1.00;;;;;;5073053;28;20430;-86
2022/10/26 12:50:03;;;;;;;0.10;0.10;;;20.70;1.00;;;;;;5056206;28;20029;-86
2022/10/26 12:52:51;;;;;;;0.20;0.20;;;20.90;1.00;;;;;;5072293;28;20041;-87
2022/10/26 12:55:16;;;;;;;0.63;0.43;;;21.30;1.00;;;;;;5072743;28;20037;-87
2022/10/26 12:57:44;;;;;;;0.63;0.47;;;19.90;99.90;;;;;;5055831;28;20343;-87
2022/10/26 13:00:16;;;;;;;0.57;0.30;;;20.50;99.90;;;;;;5083153;28;20064;-86
2022/10/26 13:02:54;;;;;;;0.00;0.00;;;20.20;1.00;;;;;;5042064;28;20044;-86
2022/10/26 13:05:54;;;;;;;1.35;0.70;;;20.20;1.00;;;;;;5039373;28;20066;-86
2022/10/26 13:08:19;;;;;;;0.00;0.00;;;20.20;1.00;;;;;;5038671;28;20084;-87
2022/10/26 13:11:04;;;;;;;0.52;0.32;;;20.30;1.00;;;;;;5038719;28;20174;-87
2022/10/26 13:13:32;;;;;;;0.17;0.10;;;20.30;1.00;;;;;;5054901;28;20048;-85
2022/10/26 13:16:02;;;;;;;0.00;0.00;;;20.60;99.90;;;;;;5057638;28;20052;-87
2022/10/26 13:18:29;;;;;;;0.38;0.38;;;21.30;38.10;;;;;;5067762;28;20040;-87
2022/10/26 13:21:04;;;;;;;0.00;0.00;;;20.40;1.00;;;;;;5061851;28;20514;-86
2022/10/26 13:23:34;;;;;;;17.45;1.15;;;20.10;10.10;;;;;;5078475;28;20063;-86